Time;durP1;ratioP1;P1;durP2;ratioP2;P2;SDS_P1;SDS_P2;PMS_P1;PMS_P2;Temp;Humidity;BMP_temperature;BMP_pressure;BME280_temperature;BME280_humidity;BME280_pressure;Samples;Min_cycle;Max_cycle;Signal;HPM_P1;HPM_P2
2023/03/19 00:01:12;;;;;;;10.60;9.53;;;13.00;99.90;;;;;;4915518;29;20202;-75
2023/03/19 00:03:38;;;;;;;10.87;9.27;;;13.00;99.90;;;;;;4915927;29;20466;-75
2023/03/19 00:06:04;;;;;;;9.77;8.97;;;13.00;99.90;;;;;;4915280;29;20183;-76
2023/03/19 00:08:29;;;;;;;9.80;8.90;;;13.00;99.90;;;;;;4916000;29;20240;-75
2023/03/19 00:10:55;;;;;;;10.50;9.00;;;13.00;99.90;;;;;;4915940;29;20173;-75
2023/03/19 00:13:21;;;;;;;9.93;9.10;;;13.00;99.90;;;;;;4915265;29;20199;-75
2023/03/19 00:15:46;;;;;;;10.17;9.10;;;13.00;99.90;;;;;;4915821;29;20184;-75
2023/03/19 00:18:12;;;;;;;8.87;8.20;;;13.00;99.90;;;;;;4915210;29;20178;-75
2023/03/19 00:20:38;;;;;;;9.70;8.80;;;12.90;99.90;;;;;;4914441;29;20175;-75
2023/03/19 00:23:05;;;;;;;9.43;8.57;;;12.90;99.90;;;;;;4915013;29;20512;-76
2023/03/19 00:25:32;;;;;;;8.20;7.37;;;13.00;99.90;;;;;;4915777;29;20429;-75
2023/03/19 00:27:58;;;;;;;9.03;8.13;;;13.00;99.90;;;;;;4915899;29;20802;-76
2023/03/19 00:30:23;;;;;;;8.50;7.73;;;13.00;99.90;;;;;;4915364;29;20515;-75
2023/03/19 00:32:49;;;;;;;8.47;7.87;;;13.00;99.90;;;;;;4915944;29;20701;-75
2023/03/19 00:35:15;;;;;;;8.27;7.57;;;13.00;99.90;;;;;;4914731;29;20188;-75
2023/03/19 00:37:41;;;;;;;8.00;7.30;;;13.00;99.90;;;;;;4915706;29;20181;-75
2023/03/19 00:40:09;;;;;;;7.33;6.73;;;13.00;99.90;;;;;;4914992;29;20413;-75
2023/03/19 00:42:35;;;;;;;9.63;6.87;;;13.00;99.90;;;;;;4915497;29;20465;-75
2023/03/19 00:45:01;;;;;;;7.70;7.00;;;13.00;99.90;;;;;;4915126;29;20555;-77
2023/03/19 00:47:26;;;;;;;8.10;6.90;;;13.00;99.90;;;;;;4915490;29;20546;-75
2023/03/19 00:49:52;;;;;;;9.13;6.70;;;12.90;99.90;;;;;;4915273;29;20186;-75
2023/03/19 00:52:18;;;;;;;8.90;7.20;;;12.90;99.90;;;;;;4914164;29;21086;-75
2023/03/19 00:54:44;;;;;;;7.47;6.90;;;12.90;99.90;;;;;;4914724;29;20197;-76
2023/03/19 00:57:09;;;;;;;7.87;7.03;;;12.90;99.90;;;;;;4912398;29;20196;-76
2023/03/19 00:59:35;;;;;;;7.30;6.60;;;12.90;99.90;;;;;;4914530;29;20249;-75
2023/03/19 01:02:01;;;;;;;7.70;6.97;;;13.00;99.90;;;;;;4916271;29;20192;-77
2023/03/19 01:04:27;;;;;;;7.30;6.60;;;13.00;99.90;;;;;;4916876;29;20196;-76
2023/03/19 01:06:52;;;;;;;6.13;5.60;;;13.00;99.90;;;;;;4918280;29;20630;-76
2023/03/19 01:09:18;;;;;;;6.57;6.17;;;13.00;99.90;;;;;;4917770;29;20186;-75
2023/03/19 01:11:44;;;;;;;5.50;5.10;;;13.00;99.90;;;;;;4917575;29;20192;-76
2023/03/19 01:14:10;;;;;;;6.70;6.20;;;13.00;99.90;;;;;;4917321;29;21015;-75
2023/03/19 01:16:36;;;;;;;6.13;5.63;;;13.00;99.90;;;;;;4918938;29;20446;-75
2023/03/19 01:19:02;;;;;;;7.00;6.40;;;13.00;99.90;;;;;;4915183;29;20456;-77
2023/03/19 01:21:31;;;;;;;6.90;6.30;;;13.00;99.90;;;;;;4918556;29;20192;-75
2023/03/19 01:23:57;;;;;;;7.10;6.60;;;13.10;99.90;;;;;;4917110;29;20508;-76
2023/03/19 01:26:23;;;;;;;6.97;6.33;;;13.00;99.90;;;;;;4917777;29;20416;-75
2023/03/19 01:28:49;;;;;;;7.33;6.63;;;13.00;99.90;;;;;;4916519;29;21424;-75
2023/03/19 01:31:15;;;;;;;7.57;6.90;;;13.00;99.90;;;;;;4915929;29;20580;-75
2023/03/19 01:33:41;;;;;;;7.43;6.83;;;13.00;99.90;;;;;;4917909;29;20195;-75
2023/03/19 01:36:08;;;;;;;6.50;6.00;;;13.00;99.90;;;;;;4917939;29;20427;-76
2023/03/19 01:38:34;;;;;;;6.73;6.13;;;13.00;99.90;;;;;;4917606;29;20516;-75
2023/03/19 01:41:00;;;;;;;7.53;6.80;;;13.00;99.90;;;;;;4918339;29;20437;-75
2023/03/19 01:43:31;;;;;;;6.97;6.47;;;13.00;99.90;;;;;;4917316;29;20505;-75
2023/03/19 01:46:05;;;;;;;6.50;6.00;;;12.90;99.90;;;;;;4918408;29;20468;-76
2023/03/19 01:48:44;;;;;;;6.83;6.30;;;12.90;99.90;;;;;;4918338;29;20469;-76
2023/03/19 01:51:14;;;;;;;8.27;6.20;;;12.90;99.90;;;;;;4917589;29;20413;-75
2023/03/19 01:53:47;;;;;;;7.43;6.80;;;12.90;99.90;;;;;;4918158;29;20417;-75
2023/03/19 01:56:17;;;;;;;7.53;6.83;;;12.80;99.90;;;;;;4917386;29;20435;-75
2023/03/19 01:58:47;;;;;;;7.30;6.60;;;12.80;99.90;;;;;;4918128;29;20457;-75
2023/03/19 02:01:13;;;;;;;7.30;6.70;;;12.80;99.90;;;;;;4917296;29;20416;-75
2023/03/19 02:03:40;;;;;;;6.90;6.40;;;12.70;99.90;;;;;;4917385;29;20454;-76
2023/03/19 02:06:07;;;;;;;7.47;6.63;;;12.70;99.90;;;;;;4916871;29;20497;-77
2023/03/19 02:08:35;;;;;;;7.40;6.80;;;12.70;99.90;;;;;;4915826;29;20476;-75
2023/03/19 02:11:01;;;;;;;6.90;6.40;;;12.60;99.90;;;;;;4917248;29;20498;-75
2023/03/19 02:13:27;;;;;;;8.20;7.10;;;12.60;99.90;;;;;;4915733;29;20448;-75
2023/03/19 02:15:54;;;;;;;6.70;6.20;;;12.70;99.90;;;;;;4917880;29;20480;-75
2023/03/19 02:18:20;;;;;;;6.17;5.70;;;12.70;99.90;;;;;;4916342;29;20497;-76
2023/03/19 02:21:05;;;;;;;6.77;6.17;;;12.70;99.90;;;;;;4915712;29;20431;-76
2023/03/19 02:23:49;;;;;;;6.53;6.03;;;12.70;99.90;;;;;;4916675;29;20473;-75
2023/03/19 02:26:20;;;;;;;9.93;7.80;;;12.70;99.90;;;;;;4916226;29;20440;-76
2023/03/19 02:28:48;;;;;;;7.70;6.20;;;12.70;99.90;;;;;;4914408;29;20444;-75
2023/03/19 02:31:15;;;;;;;6.80;6.13;;;12.60;99.90;;;;;;4916751;29;20411;-75
2023/03/19 02:33:41;;;;;;;8.67;6.70;;;12.60;99.90;;;;;;4916809;29;20440;-75
2023/03/19 02:36:16;;;;;;;6.70;6.20;;;12.60;99.90;;;;;;4916526;29;20929;-77
2023/03/19 02:38:45;;;;;;;7.00;6.50;;;12.60;99.90;;;;;;4906018;29;20275;-75
2023/03/19 02:41:11;;;;;;;7.40;6.80;;;12.50;99.90;;;;;;4914230;29;20530;-75
2023/03/19 02:43:40;;;;;;;6.77;6.30;;;12.50;99.90;;;;;;4914637;29;21062;-75
2023/03/19 02:46:10;;;;;;;8.23;7.43;;;12.50;99.90;;;;;;4912616;29;20431;-77
2023/03/19 02:48:36;;;;;;;6.93;6.33;;;12.50;99.90;;;;;;4898109;29;20501;-75
2023/03/19 02:51:03;;;;;;;7.60;7.00;;;12.40;99.90;;;;;;4902358;29;20437;-75
2023/03/19 02:53:29;;;;;;;7.40;6.80;;;12.40;99.90;;;;;;4915984;29;20433;-75
2023/03/19 02:55:55;;;;;;;8.73;7.17;;;12.40;99.90;;;;;;4916720;29;20433;-75
2023/03/19 02:58:20;;;;;;;6.70;6.30;;;12.40;99.90;;;;;;4915687;29;20430;-75
2023/03/19 03:00:46;;;;;;;9.00;6.53;;;12.40;99.90;;;;;;4915299;29;20274;-75
2023/03/19 03:03:12;;;;;;;8.30;7.00;;;12.40;99.90;;;;;;4915423;29;20205;-75
2023/03/19 03:05:38;;;;;;;10.17;7.63;;;12.40;99.90;;;;;;4916158;29;20182;-76
2023/03/19 03:08:04;;;;;;;6.00;5.60;;;12.40;99.90;;;;;;4915985;29;20521;-75
2023/03/19 03:10:31;;;;;;;6.93;6.40;;;12.30;99.90;;;;;;4914647;29;20246;-76
2023/03/19 03:12:58;;;;;;;6.93;6.33;;;12.30;99.90;;;;;;4916272;29;20799;-75
2023/03/19 03:15:24;;;;;;;7.50;6.93;;;12.30;99.90;;;;;;4915122;29;20447;-75
2023/03/19 03:17:50;;;;;;;6.90;6.40;;;12.30;99.90;;;;;;4915271;29;20433;-75
2023/03/19 03:20:18;;;;;;;7.70;6.90;;;12.30;99.90;;;;;;4915134;29;20514;-75
2023/03/19 03:22:45;;;;;;;7.30;6.60;;;12.30;99.90;;;;;;4915874;29;20218;-75
2023/03/19 03:25:11;;;;;;;7.23;6.63;;;12.20;99.90;;;;;;4914361;29;20814;-75
2023/03/19 03:27:37;;;;;;;8.43;7.73;;;12.20;99.90;;;;;;4914876;29;20949;-76
2023/03/19 03:30:05;;;;;;;8.50;7.70;;;12.10;99.90;;;;;;4912487;29;20997;-75
2023/03/19 03:32:31;;;;;;;7.63;7.03;;;12.20;99.90;;;;;;4914170;29;20423;-75
2023/03/19 03:34:56;;;;;;;9.17;8.27;;;12.20;99.90;;;;;;4915490;29;20519;-75
2023/03/19 03:37:22;;;;;;;9.37;8.43;;;12.20;99.90;;;;;;4915871;29;20287;-76
2023/03/19 03:39:48;;;;;;;9.43;8.50;;;12.10;99.90;;;;;;4916393;29;20222;-75
2023/03/19 03:42:14;;;;;;;9.57;8.23;;;12.20;99.90;;;;;;4914796;29;20258;-76
2023/03/19 03:44:40;;;;;;;9.83;8.60;;;12.20;99.90;;;;;;4915868;29;20304;-75
2023/03/19 03:47:06;;;;;;;8.83;8.23;;;12.30;99.90;;;;;;4914366;29;20430;-76
2023/03/19 03:49:31;;;;;;;8.97;7.90;;;12.30;99.90;;;;;;4914330;29;20722;-75
2023/03/19 03:51:57;;;;;;;12.30;7.73;;;12.30;99.90;;;;;;4916189;29;20217;-75
2023/03/19 03:54:23;;;;;;;9.20;8.30;;;12.30;99.90;;;;;;4914820;29;20193;-75
2023/03/19 03:56:49;;;;;;;7.80;7.13;;;12.30;99.90;;;;;;4915550;29;20188;-75
2023/03/19 03:59:15;;;;;;;8.40;7.53;;;12.40;99.90;;;;;;4914800;29;20219;-76
2023/03/19 04:01:41;;;;;;;8.60;7.80;;;12.30;99.90;;;;;;4915200;29;20518;-76
2023/03/19 04:04:07;;;;;;;8.47;7.63;;;12.50;99.90;;;;;;4915381;29;20919;-76
2023/03/19 04:06:33;;;;;;;8.80;8.00;;;12.40;99.90;;;;;;4914158;29;20269;-75
2023/03/19 04:08:59;;;;;;;8.40;7.67;;;12.50;99.90;;;;;;4914639;29;20190;-75
2023/03/19 04:11:25;;;;;;;8.63;7.87;;;12.40;99.90;;;;;;4913205;29;20927;-75
2023/03/19 04:13:54;;;;;;;8.03;7.23;;;12.40;99.90;;;;;;4915545;29;20444;-75
2023/03/19 04:16:20;;;;;;;8.07;7.33;;;12.50;99.90;;;;;;4915653;29;20426;-75
2023/03/19 04:18:45;;;;;;;9.00;7.43;;;12.50;99.90;;;;;;4913896;29;20522;-75
2023/03/19 04:21:11;;;;;;;7.87;7.23;;;12.50;99.90;;;;;;4914896;29;20194;-77
2023/03/19 04:23:37;;;;;;;7.77;6.97;;;12.60;99.90;;;;;;4929188;29;20623;-75
2023/03/19 04:26:05;;;;;;;7.10;6.60;;;12.60;99.90;;;;;;4915646;29;20195;-75
2023/03/19 04:28:32;;;;;;;8.30;7.60;;;12.60;99.90;;;;;;4913210;29;20195;-75
2023/03/19 04:31:04;;;;;;;8.00;6.70;;;12.60;99.90;;;;;;4914467;29;20954;-75
2023/03/19 04:33:30;;;;;;;8.27;7.50;;;12.60;99.90;;;;;;4914095;29;20438;-76
2023/03/19 04:35:56;;;;;;;7.83;7.23;;;12.60;99.90;;;;;;4914937;29;20431;-75
2023/03/19 04:38:27;;;;;;;7.37;6.73;;;12.70;99.90;;;;;;4917136;29;20943;-75
2023/03/19 04:40:54;;;;;;;8.07;7.47;;;12.60;99.90;;;;;;4919548;29;20405;-75
2023/03/19 04:43:21;;;;;;;8.30;7.60;;;12.60;99.90;;;;;;4916388;29;21040;-76
2023/03/19 04:45:46;;;;;;;8.80;8.00;;;12.60;99.90;;;;;;4918130;29;20423;-75
2023/03/19 04:48:12;;;;;;;9.13;8.33;;;12.70;99.90;;;;;;4919275;29;20437;-76
2023/03/19 04:50:39;;;;;;;9.93;9.03;;;12.60;99.90;;;;;;4918444;29;20241;-75
2023/03/19 04:53:05;;;;;;;8.80;8.10;;;12.60;99.90;;;;;;4919247;29;20274;-75
2023/03/19 04:55:31;;;;;;;9.47;8.67;;;12.60;99.90;;;;;;4918447;29;20501;-75
2023/03/19 04:57:57;;;;;;;9.13;8.30;;;12.70;99.90;;;;;;4901391;29;20540;-75
2023/03/19 05:00:23;;;;;;;11.80;8.13;;;12.60;99.90;;;;;;4917207;29;20423;-75
2023/03/19 05:02:48;;;;;;;8.77;8.00;;;12.60;99.90;;;;;;4919122;29;20199;-75
2023/03/19 05:05:14;;;;;;;8.70;7.80;;;12.60;99.90;;;;;;4918093;29;20441;-77
2023/03/19 05:07:41;;;;;;;8.83;8.07;;;12.60;99.90;;;;;;4918539;29;20660;-75
2023/03/19 05:10:07;;;;;;;7.80;7.20;;;12.60;99.90;;;;;;4901941;29;20765;-75
2023/03/19 05:12:33;;;;;;;8.17;7.37;;;12.60;99.90;;;;;;4918019;29;20785;-75
2023/03/19 05:14:59;;;;;;;7.00;6.37;;;12.60;99.90;;;;;;4918709;29;20437;-75
2023/03/19 05:17:25;;;;;;;7.63;7.03;;;12.60;99.90;;;;;;4917769;29;20602;-76
2023/03/19 05:19:51;;;;;;;10.70;7.40;;;12.60;99.90;;;;;;4918867;29;20421;-74
2023/03/19 05:22:18;;;;;;;7.73;6.40;;;12.70;99.90;;;;;;4918153;29;20927;-76
2023/03/19 05:24:45;;;;;;;6.43;5.87;;;12.70;99.90;;;;;;4917824;29;20250;-74
2023/03/19 05:27:11;;;;;;;6.40;5.90;;;12.80;99.90;;;;;;4916917;29;20463;-74
2023/03/19 05:29:37;;;;;;;5.13;4.80;;;12.80;99.90;;;;;;4917843;29;20913;-74
2023/03/19 05:32:03;;;;;;;4.40;4.10;;;12.80;99.90;;;;;;4917509;29;20437;-74
2023/03/19 05:34:30;;;;;;;4.50;4.20;;;12.90;99.90;;;;;;4917755;29;20414;-74
2023/03/19 05:36:56;;;;;;;6.00;4.67;;;12.90;99.90;;;;;;4918529;29;20457;-74
2023/03/19 05:39:22;;;;;;;5.67;5.17;;;13.00;99.90;;;;;;4917748;29;20449;-75
2023/03/19 05:41:47;;;;;;;5.23;4.83;;;13.10;99.90;;;;;;4916753;29;20466;-74
2023/03/19 05:44:13;;;;;;;7.50;6.90;;;13.10;99.90;;;;;;4916703;29;20481;-74
2023/03/19 05:46:40;;;;;;;5.70;5.20;;;13.10;99.90;;;;;;4917551;29;20200;-74
2023/03/19 05:49:06;;;;;;;5.33;4.93;;;13.20;99.90;;;;;;4916223;29;20180;-74
2023/03/19 05:51:32;;;;;;;4.60;4.30;;;13.20;99.90;;;;;;4912938;29;20445;-75
2023/03/19 05:53:57;;;;;;;5.40;5.07;;;13.10;99.90;;;;;;4899230;29;20181;-74
2023/03/19 05:56:23;;;;;;;4.93;4.63;;;13.20;99.90;;;;;;4898205;29;20176;-75
2023/03/19 05:58:49;;;;;;;6.27;5.77;;;13.10;99.90;;;;;;4899367;29;20181;-75
2023/03/19 06:01:15;;;;;;;6.23;5.63;;;13.10;99.90;;;;;;4899265;29;20177;-75
2023/03/19 06:03:40;;;;;;;6.57;5.73;;;13.10;99.90;;;;;;4898381;29;20264;-74
2023/03/19 06:06:06;;;;;;;5.50;5.10;;;13.10;99.90;;;;;;4899169;29;20276;-74
2023/03/19 06:08:32;;;;;;;6.27;5.77;;;13.20;99.90;;;;;;4898353;29;20186;-74
2023/03/19 06:10:58;;;;;;;6.07;5.50;;;13.20;99.90;;;;;;4899028;29;20181;-74
2023/03/19 06:13:24;;;;;;;6.40;5.87;;;13.30;99.90;;;;;;4897996;29;20758;-75
2023/03/19 06:15:50;;;;;;;5.30;5.00;;;13.30;99.90;;;;;;4899116;29;20429;-74
2023/03/19 06:18:17;;;;;;;5.70;5.30;;;13.40;99.90;;;;;;4910323;29;20188;-75
2023/03/19 06:20:43;;;;;;;6.33;5.73;;;13.40;99.90;;;;;;4915815;29;20422;-75
2023/03/19 06:23:08;;;;;;;6.73;6.00;;;13.50;99.90;;;;;;4916974;29;20510;-75
2023/03/19 06:25:34;;;;;;;7.53;5.20;;;13.60;99.90;;;;;;4915658;29;20422;-75
2023/03/19 06:28:00;;;;;;;6.10;5.33;;;13.50;99.90;;;;;;4917573;29;20216;-75
2023/03/19 06:30:26;;;;;;;7.17;5.50;;;13.60;99.90;;;;;;4916928;29;20453;-75
2023/03/19 06:32:51;;;;;;;6.40;5.87;;;13.70;99.90;;;;;;4900666;29;20193;-74
2023/03/19 06:35:17;;;;;;;5.27;4.87;;;13.70;99.90;;;;;;4917595;29;20242;-75
2023/03/19 06:37:43;;;;;;;5.93;5.43;;;13.70;99.90;;;;;;4915286;29;20217;-75
2023/03/19 06:40:10;;;;;;;4.63;4.33;;;13.80;99.90;;;;;;4917381;29;20501;-75
2023/03/19 06:42:36;;;;;;;6.03;5.53;;;13.80;99.90;;;;;;4915603;29;20214;-75
2023/03/19 06:45:02;;;;;;;6.20;5.70;;;13.90;99.90;;;;;;4917583;29;20521;-75
2023/03/19 06:47:28;;;;;;;6.47;5.57;;;13.90;99.90;;;;;;4916487;29;20450;-75
2023/03/19 06:49:53;;;;;;;6.40;5.90;;;13.90;99.90;;;;;;4916983;29;20925;-75
2023/03/19 06:52:19;;;;;;;6.93;6.10;;;13.80;99.90;;;;;;4917126;29;20190;-75
2023/03/19 06:54:45;;;;;;;6.70;6.10;;;13.80;99.90;;;;;;4916276;29;20184;-74
2023/03/19 06:57:11;;;;;;;5.67;5.20;;;13.80;99.90;;;;;;4917452;29;20194;-74
2023/03/19 06:59:36;;;;;;;5.83;5.43;;;13.80;99.90;;;;;;4916069;29;20190;-75
2023/03/19 07:02:02;;;;;;;6.30;5.80;;;13.70;99.90;;;;;;4916969;29;20268;-75
2023/03/19 07:04:29;;;;;;;6.13;5.53;;;13.80;99.90;;;;;;4916119;29;20218;-75
2023/03/19 07:06:54;;;;;;;5.53;5.03;;;13.90;99.90;;;;;;4916030;29;20192;-74
2023/03/19 07:09:22;;;;;;;6.00;5.50;;;13.90;99.90;;;;;;4914265;29;20462;-76
2023/03/19 07:11:49;;;;;;;5.37;4.87;;;13.90;99.90;;;;;;4914868;29;20926;-75
2023/03/19 07:14:15;;;;;;;5.80;5.40;;;14.00;99.90;;;;;;4916815;29;20199;-74
2023/03/19 07:16:40;;;;;;;5.13;4.73;;;13.90;99.90;;;;;;4913947;29;20587;-75
2023/03/19 07:19:06;;;;;;;5.43;4.80;;;13.90;99.90;;;;;;4914607;29;20639;-75
2023/03/19 07:21:32;;;;;;;4.90;4.53;;;14.00;99.90;;;;;;4915131;29;20190;-74
2023/03/19 07:23:57;;;;;;;4.43;4.23;;;13.90;99.90;;;;;;4915769;29;20273;-74
2023/03/19 07:26:23;;;;;;;4.43;4.03;;;14.00;99.90;;;;;;4915534;29;20209;-76
2023/03/19 07:28:49;;;;;;;5.40;4.20;;;14.10;99.90;;;;;;4916230;29;20223;-74
2023/03/19 07:31:15;;;;;;;4.00;3.70;;;14.00;99.90;;;;;;4915706;29;20597;-74
2023/03/19 07:33:41;;;;;;;4.40;4.10;;;14.00;99.90;;;;;;4914377;29;20599;-74
2023/03/19 07:36:07;;;;;;;4.73;4.43;;;14.10;99.90;;;;;;4916434;29;20505;-74
2023/03/19 07:38:33;;;;;;;4.00;3.80;;;14.10;99.90;;;;;;4915656;29;20184;-74
2023/03/19 07:40:59;;;;;;;3.97;3.70;;;14.00;99.90;;;;;;4914950;29;20793;-75
2023/03/19 07:43:25;;;;;;;4.27;3.97;;;14.10;99.90;;;;;;4915985;29;20229;-76
2023/03/19 07:45:50;;;;;;;4.23;4.03;;;14.10;99.90;;;;;;4904597;29;20475;-75
2023/03/19 07:48:16;;;;;;;5.10;4.60;;;14.20;99.90;;;;;;4901371;29;20430;-75
2023/03/19 07:50:42;;;;;;;4.27;3.97;;;14.10;99.90;;;;;;4915058;29;20183;-75
2023/03/19 07:53:08;;;;;;;4.87;4.57;;;14.10;99.90;;;;;;4914500;29;20253;-76
2023/03/19 07:55:33;;;;;;;5.27;4.87;;;14.20;99.90;;;;;;4911446;29;20205;-74
2023/03/19 07:57:59;;;;;;;4.50;4.20;;;14.30;99.90;;;;;;4907032;29;20505;-75
2023/03/19 08:00:25;;;;;;;5.03;4.67;;;14.30;99.90;;;;;;4907628;29;20196;-77
2023/03/19 08:02:50;;;;;;;5.50;5.00;;;14.30;99.90;;;;;;4906692;29;20295;-75
2023/03/19 08:05:16;;;;;;;5.10;4.70;;;14.30;99.90;;;;;;4905454;29;20327;-74
2023/03/19 08:07:43;;;;;;;5.30;4.90;;;14.30;99.90;;;;;;4905288;29;20187;-75
2023/03/19 08:10:10;;;;;;;4.90;4.50;;;14.40;99.90;;;;;;4909927;29;20186;-75
2023/03/19 08:12:39;;;;;;;6.37;5.87;;;14.40;99.90;;;;;;4910680;29;20939;-75
2023/03/19 08:15:08;;;;;;;7.40;6.90;;;14.40;99.90;;;;;;4910562;29;20412;-75
2023/03/19 08:17:37;;;;;;;7.13;6.63;;;14.40;99.90;;;;;;4911914;29;20797;-75
2023/03/19 08:20:15;;;;;;;6.03;5.43;;;14.40;99.90;;;;;;4915234;29;20502;-75
2023/03/19 08:22:42;;;;;;;5.60;5.10;;;14.50;99.90;;;;;;4911141;29;20474;-75
2023/03/19 08:25:09;;;;;;;6.30;5.70;;;14.40;99.90;;;;;;4912258;29;20466;-75
2023/03/19 08:27:35;;;;;;;5.20;4.80;;;14.50;99.90;;;;;;4915387;29;21570;-75
2023/03/19 08:30:03;;;;;;;5.93;5.53;;;14.40;99.90;;;;;;4912428;29;20919;-74
2023/03/19 08:32:29;;;;;;;6.60;6.00;;;14.30;99.90;;;;;;4917136;29;20445;-75
2023/03/19 08:34:55;;;;;;;7.07;6.40;;;14.40;99.90;;;;;;4916871;29;20431;-75
2023/03/19 08:37:21;;;;;;;6.37;5.80;;;14.20;99.90;;;;;;4917760;29;20459;-74
2023/03/19 08:39:49;;;;;;;6.87;6.27;;;14.20;99.90;;;;;;4910588;29;20664;-75
2023/03/19 08:42:15;;;;;;;4.80;4.50;;;14.30;99.90;;;;;;4914493;29;20442;-75
2023/03/19 08:44:41;;;;;;;6.10;5.70;;;14.30;99.90;;;;;;4910846;29;20493;-75
2023/03/19 08:47:06;;;;;;;6.47;5.97;;;14.30;99.90;;;;;;4916416;29;20613;-74
2023/03/19 08:49:32;;;;;;;4.73;4.43;;;14.30;99.90;;;;;;4914639;29;20216;-75
2023/03/19 08:51:58;;;;;;;6.10;5.60;;;14.30;99.90;;;;;;4911158;29;20605;-75
2023/03/19 08:54:24;;;;;;;4.03;3.73;;;14.20;99.90;;;;;;4914201;29;20770;-76
2023/03/19 08:56:49;;;;;;;4.63;4.40;;;14.20;99.90;;;;;;4923284;29;20512;-74
2023/03/19 08:59:15;;;;;;;4.43;4.13;;;14.30;99.90;;;;;;4922343;29;20421;-74
2023/03/19 09:01:42;;;;;;;5.07;4.67;;;14.40;99.90;;;;;;4918914;29;20189;-74
2023/03/19 09:04:08;;;;;;;163.43;111.37;;;14.40;99.90;;;;;;4917527;29;20962;-74
2023/03/19 09:06:34;;;;;;;26.50;19.37;;;14.30;99.90;;;;;;4920962;29;20414;-74
2023/03/19 09:09:00;;;;;;;220.30;164.40;;;14.40;99.90;;;;;;4921830;29;20683;-74
2023/03/19 09:11:26;;;;;;;4.63;4.23;;;14.50;99.90;;;;;;4920038;29;20440;-75
2023/03/19 09:13:51;;;;;;;3.33;3.23;;;14.20;99.90;;;;;;4914231;29;20433;-74
2023/03/19 09:16:17;;;;;;;4.53;4.10;;;14.20;99.90;;;;;;4911507;29;20543;-74
2023/03/19 09:18:43;;;;;;;3.77;3.60;;;14.20;99.90;;;;;;4910753;29;20310;-75
2023/03/19 09:21:09;;;;;;;3.80;3.57;;;14.00;99.90;;;;;;4913973;29;20551;-74
2023/03/19 09:23:35;;;;;;;3.33;3.13;;;14.00;99.90;;;;;;4899408;29;20589;-75
2023/03/19 09:26:00;;;;;;;4.00;3.70;;;14.00;99.90;;;;;;4906941;29;20604;-74
2023/03/19 09:28:26;;;;;;;4.13;3.80;;;14.10;99.90;;;;;;4913802;29;20897;-74
2023/03/19 09:30:52;;;;;;;5.43;4.93;;;14.20;99.90;;;;;;4898804;29;20218;-74
2023/03/19 09:33:19;;;;;;;14.13;11.70;;;14.30;99.90;;;;;;4899519;29;20568;-74
2023/03/19 09:35:51;;;;;;;5.50;5.10;;;14.30;99.90;;;;;;4906199;29;20922;-74
2023/03/19 09:38:17;;;;;;;4.43;4.10;;;14.40;99.90;;;;;;4914146;29;20998;-74
2023/03/19 09:40:47;;;;;;;3.93;3.67;;;14.50;99.90;;;;;;4907079;29;20445;-74
2023/03/19 09:43:48;;;;;;;4.20;4.00;;;14.50;99.90;;;;;;4907993;29;20954;-74
2023/03/19 09:46:18;;;;;;;6.30;4.20;;;14.40;99.90;;;;;;4908932;29;20446;-74
2023/03/19 09:48:56;;;;;;;3.90;3.60;;;14.30;99.90;;;;;;4907485;29;20426;-74
2023/03/19 09:52:16;;;;;;;4.00;3.80;;;14.40;99.90;;;;;;4910257;29;20465;-74
2023/03/19 09:54:48;;;;;;;4.90;4.50;;;14.50;99.90;;;;;;4882470;29;20521;-74
2023/03/19 09:57:16;;;;;;;4.93;4.53;;;14.40;99.90;;;;;;4911136;29;20506;-74
2023/03/19 09:59:42;;;;;;;4.60;4.30;;;14.50;99.90;;;;;;4910089;29;20559;-74
2023/03/19 10:02:39;;;;;;;4.80;4.30;;;14.70;99.90;;;;;;4912170;29;20439;-74
2023/03/19 10:05:29;;;;;;;4.77;4.47;;;14.80;99.90;;;;;;4911705;29;20480;-75
2023/03/19 10:08:07;;;;;;;4.80;4.40;;;15.00;99.90;;;;;;4919372;29;20436;-75
2023/03/19 10:11:07;;;;;;;4.23;3.90;;;15.20;99.90;;;;;;4913065;29;20455;-75
2023/03/19 10:14:09;;;;;;;5.57;5.17;;;15.40;99.90;;;;;;4911086;29;20798;-76
2023/03/19 10:16:38;;;;;;;5.17;4.77;;;15.60;99.90;;;;;;4908747;29;20421;-75
2023/03/19 10:19:05;;;;;;;7.27;6.53;;;15.70;99.90;;;;;;4912393;29;20825;-75
2023/03/19 10:21:50;;;;;;;6.40;5.90;;;15.80;99.90;;;;;;4917004;29;20430;-75
2023/03/19 10:24:30;;;;;;;23.67;18.40;;;15.90;99.90;;;;;;4915990;29;20972;-75
2023/03/19 10:27:00;;;;;;;14.87;13.23;;;16.00;99.90;;;;;;4913801;29;20440;-75
2023/03/19 10:29:27;;;;;;;94.33;62.63;;;16.10;99.90;;;;;;4917095;29;20495;-75
2023/03/19 10:32:11;;;;;;;9.13;8.27;;;16.20;99.90;;;;;;4917295;29;20888;-75
2023/03/19 10:34:41;;;;;;;5.53;5.13;;;16.30;99.90;;;;;;4913701;29;20458;-75
2023/03/19 10:37:24;;;;;;;6.10;5.60;;;16.50;99.90;;;;;;4916144;29;20466;-75
2023/03/19 10:39:52;;;;;;;5.80;5.30;;;16.60;99.90;;;;;;4914779;29;20514;-75
2023/03/19 10:42:40;;;;;;;7.10;6.50;;;16.70;99.90;;;;;;4916406;29;20445;-77
2023/03/19 10:45:10;;;;;;;6.33;5.83;;;17.00;99.90;;;;;;4917273;29;20498;-75
2023/03/19 10:47:39;;;;;;;6.40;5.90;;;17.20;99.90;;;;;;4915397;29;20923;-80
2023/03/19 10:50:07;;;;;;;5.93;5.43;;;17.40;99.90;;;;;;4916482;29;20477;-76
2023/03/19 10:52:36;;;;;;;6.60;6.03;;;17.60;99.90;;;;;;4912356;29;20458;-75
2023/03/19 10:55:17;;;;;;;5.40;4.87;;;17.90;99.90;;;;;;4913831;29;20509;-75
2023/03/19 10:57:47;;;;;;;7.00;6.40;;;18.10;99.80;;;;;;4913939;29;20442;-75
2023/03/19 11:00:18;;;;;;;6.27;5.67;;;18.20;99.70;;;;;;4932979;29;20457;-75
2023/03/19 11:02:50;;;;;;;5.60;5.20;;;18.40;99.90;;;;;;4913905;29;20466;-75
2023/03/19 11:05:28;;;;;;;5.43;5.03;;;18.60;97.90;;;;;;4909224;29;20437;-74
2023/03/19 11:07:55;;;;;;;4.90;4.50;;;18.90;96.70;;;;;;4905294;29;20436;-75
2023/03/19 11:10:25;;;;;;;3.80;3.60;;;19.00;95.50;;;;;;4916314;29;20765;-75
2023/03/19 11:13:03;;;;;;;4.60;4.30;;;19.00;93.90;;;;;;4915460;29;20962;-75
2023/03/19 11:15:36;;;;;;;5.30;4.90;;;19.00;94.80;;;;;;4912385;29;20450;-74
2023/03/19 11:18:21;;;;;;;5.93;5.37;;;18.80;94.00;;;;;;4914052;29;20958;-75
2023/03/19 11:21:01;;;;;;;5.70;5.30;;;18.60;93.20;;;;;;4915877;29;20422;-75
2023/03/19 11:23:29;;;;;;;4.80;4.50;;;18.50;93.60;;;;;;4914765;29;20477;-75
2023/03/19 11:26:00;;;;;;;4.30;4.00;;;18.40;94.60;;;;;;4914097;29;20435;-75
2023/03/19 11:28:31;;;;;;;5.20;4.90;;;18.50;94.30;;;;;;4898197;29;20442;-77
2023/03/19 11:31:07;;;;;;;4.70;4.50;;;18.40;93.20;;;;;;4915240;29;20449;-75
2023/03/19 11:33:44;;;;;;;4.57;4.33;;;18.10;93.80;;;;;;4914589;29;20541;-76
2023/03/19 11:36:31;;;;;;;45.43;36.33;;;18.00;94.90;;;;;;4916055;29;20450;-77
2023/03/19 11:39:13;;;;;;;5.27;4.87;;;18.10;95.30;;;;;;4913698;29;21250;-75
2023/03/19 11:42:16;;;;;;;3.50;3.40;;;18.00;95.40;;;;;;4913359;29;20474;-77
2023/03/19 11:45:08;;;;;;;4.17;3.97;;;18.10;95.80;;;;;;4920808;29;20961;-76
2023/03/19 11:47:43;;;;;;;4.07;3.87;;;18.30;95.90;;;;;;4905624;29;20939;-74
2023/03/19 11:50:23;;;;;;;4.70;4.40;;;18.50;95.70;;;;;;4909520;29;20524;-74
2023/03/19 11:53:20;;;;;;;3.90;3.70;;;18.70;94.30;;;;;;4908098;29;20418;-75
2023/03/19 11:56:11;;;;;;;4.50;4.30;;;18.80;93.70;;;;;;4919768;29;20400;-76
2023/03/19 11:59:11;;;;;;;4.13;3.90;;;19.00;93.70;;;;;;4897408;29;20434;-77
2023/03/19 12:02:16;;;;;;;4.27;4.07;;;19.00;92.40;;;;;;4923687;29;20428;-79
2023/03/19 12:04:41;;;;;;;4.17;3.97;;;19.00;92.20;;;;;;4907956;29;20954;-76
2023/03/19 12:07:19;;;;;;;5.10;4.90;;;19.30;92.20;;;;;;4905719;29;20418;-74
2023/03/19 12:10:06;;;;;;;4.73;4.43;;;19.10;91.40;;;;;;4907048;29;20344;-74
2023/03/19 12:12:45;;;;;;;4.83;4.63;;;19.10;91.40;;;;;;4907497;29;20411;-75
2023/03/19 12:15:36;;;;;;;5.23;5.03;;;19.00;91.40;;;;;;4911827;29;20422;-75
2023/03/19 12:18:10;;;;;;;69.37;52.77;;;18.90;91.30;;;;;;4915196;29;20911;-75
2023/03/19 12:20:56;;;;;;;67.53;48.10;;;18.60;91.90;;;;;;4915151;29;20745;-75
2023/03/19 12:23:40;;;;;;;223.57;144.63;;;18.60;92.10;;;;;;4916438;29;20446;-76
2023/03/19 12:26:13;;;;;;;16.07;14.40;;;18.50;92.40;;;;;;4915227;29;20467;-75
2023/03/19 12:29:00;;;;;;;4.90;4.50;;;18.50;93.20;;;;;;4915016;29;20477;-77
2023/03/19 12:32:21;;;;;;;5.80;5.50;;;18.30;92.30;;;;;;4915532;29;20458;-76
2023/03/19 12:34:52;;;;;;;6.10;5.90;;;18.20;93.40;;;;;;4894211;29;20423;-75
2023/03/19 12:37:34;;;;;;;5.60;5.40;;;18.10;92.80;;;;;;4895222;29;20400;-75
2023/03/19 12:40:25;;;;;;;6.00;5.70;;;18.00;92.80;;;;;;4902889;29;20686;-75
2023/03/19 12:42:53;;;;;;;6.97;6.67;;;17.90;93.00;;;;;;4915180;29;20465;-76
2023/03/19 12:45:31;;;;;;;5.47;5.17;;;17.80;93.90;;;;;;4915949;29;20421;-74
2023/03/19 12:48:13;;;;;;;5.20;4.90;;;17.90;94.70;;;;;;4915433;29;20494;-74
2023/03/19 12:50:45;;;;;;;5.10;4.90;;;17.70;94.60;;;;;;4916543;29;20399;-76
2023/03/19 12:53:38;;;;;;;5.27;4.97;;;17.70;94.20;;;;;;4914830;29;20426;-77
2023/03/19 12:56:26;;;;;;;5.53;5.20;;;17.80;95.00;;;;;;4914052;29;20423;-77
2023/03/19 12:59:06;;;;;;;5.03;4.70;;;17.90;95.50;;;;;;4917658;29;20426;-75